createdAt,value
2022-10-16T00:01:31.847Z,76126.69
2022-10-16T00:04:00.610Z,76126.69
2022-10-16T00:06:32.865Z,76126.69
2022-10-16T00:09:00.459Z,76126.69
2022-10-16T00:11:38.069Z,76132.78
2022-10-16T00:14:12.442Z,76132.78
2022-10-16T00:16:39.954Z,76124.66
2022-10-16T00:19:07.939Z,76134.78
2022-10-16T00:21:35.326Z,76126.69
2022-10-16T00:24:06.624Z,76126.69
2022-10-16T00:26:35.400Z,76126.69
2022-10-16T00:29:03.578Z,76130.75
2022-10-16T00:31:30.742Z,76130.75
2022-10-16T00:33:58.022Z,76120.63
2022-10-16T00:36:26.732Z,76122.63
2022-10-16T00:38:55.824Z,76128.72
2022-10-16T00:41:25.195Z,76134.78
2022-10-16T00:43:55.095Z,76138.84
2022-10-16T00:46:22.036Z,76142.91
2022-10-16T00:49:07.000Z,76155.06
2022-10-16T00:51:39.880Z,76159.13
2022-10-16T00:54:18.444Z,76157.09
2022-10-16T00:56:46.998Z,76159.13
2022-10-16T00:59:26.358Z,76161.16
2022-10-16T01:01:54.528Z,76159.13
2022-10-16T01:04:22.311Z,76155.06
2022-10-16T01:07:07.442Z,76157.09
2022-10-16T01:10:02.936Z,76161.16
2022-10-16T01:13:07.595Z,76155.06
2022-10-16T01:15:48.535Z,76163.19
2022-10-16T01:18:38.617Z,76155.06
2022-10-16T01:21:09.537Z,76155.06
2022-10-16T01:23:48.612Z,76159.13
2022-10-16T01:26:24.280Z,76146.97
2022-10-16T01:28:56.160Z,76155.06
2022-10-16T01:31:31.645Z,76157.09
2022-10-16T01:34:14.637Z,76161.16
2022-10-16T01:36:52.844Z,76163.19
2022-10-16T01:39:24.022Z,76169.25
2022-10-16T01:41:59.993Z,76169.25
2022-10-16T01:44:31.935Z,76167.22
2022-10-16T01:47:22.890Z,76175.34
2022-10-16T01:49:51.729Z,76171.28
2022-10-16T01:52:24.034Z,76167.22
2022-10-16T01:54:54.983Z,76173.31
2022-10-16T01:57:26.631Z,76179.38
2022-10-16T02:00:00.073Z,76171.28
2022-10-16T02:02:29.580Z,76171.28
2022-10-16T02:05:04.296Z,76175.34
2022-10-16T02:07:31.295Z,76175.34
2022-10-16T02:09:58.388Z,76179.38
2022-10-16T02:12:29.236Z,76179.38
2022-10-16T02:14:56.993Z,76185.47
2022-10-16T02:17:24.696Z,76175.34
2022-10-16T02:19:55.874Z,76179.38
2022-10-16T02:22:34.801Z,76183.44
2022-10-16T02:25:14.364Z,76187.50
2022-10-16T02:27:46.387Z,76179.38
2022-10-16T02:30:42.026Z,76179.38
2022-10-16T02:33:14.629Z,76187.50
2022-10-16T02:35:42.802Z,76187.50
2022-10-16T02:40:43.721Z,76199.66
2022-10-16T02:43:11.668Z,76199.66
2022-10-16T02:45:39.236Z,76205.75
2022-10-16T02:48:06.618Z,76219.94
2022-10-16T02:50:34.240Z,76221.94
2022-10-16T02:53:01.819Z,76232.09
2022-10-16T02:55:29.185Z,76240.19
2022-10-16T02:57:56.481Z,76240.19
2022-10-16T03:00:23.563Z,76244.25
2022-10-16T03:02:51.406Z,76250.34
2022-10-16T03:05:18.628Z,76252.34
2022-10-16T03:07:45.542Z,76260.47
2022-10-16T03:10:12.776Z,76260.47
2022-10-16T03:12:39.798Z,76268.56
2022-10-16T03:15:08.340Z,76270.59
2022-10-16T03:17:35.758Z,76276.69
2022-10-16T03:20:03.737Z,76268.56
2022-10-16T03:22:30.776Z,76272.63
2022-10-16T03:24:57.965Z,76268.56
2022-10-16T03:27:25.260Z,76266.53
2022-10-16T03:29:52.519Z,76272.63
2022-10-16T03:32:21.078Z,76268.56
2022-10-16T03:34:48.286Z,76268.56
2022-10-16T03:37:15.164Z,76264.53
2022-10-16T03:39:42.411Z,76264.53
2022-10-16T03:42:09.385Z,76262.50
2022-10-16T03:44:36.552Z,76260.47
2022-10-16T03:47:03.477Z,76264.53
2022-10-16T03:49:30.866Z,76256.41
2022-10-16T03:51:57.911Z,76256.41
2022-10-16T03:54:25.179Z,76260.47
2022-10-16T03:56:52.025Z,76256.41
2022-10-16T03:59:19.177Z,76270.59
2022-10-16T04:01:46.148Z,76264.53
2022-10-16T04:04:13.519Z,76272.63
2022-10-16T04:06:41.946Z,76280.72
2022-10-16T04:09:09.274Z,76292.91
2022-10-16T04:11:36.456Z,76296.94
2022-10-16T04:14:04.035Z,76305.06
2022-10-16T04:16:30.972Z,76305.06
2022-10-16T04:18:58.280Z,76309.13
2022-10-16T04:21:25.516Z,76317.22
2022-10-16T04:23:52.954Z,76329.38
2022-10-16T04:26:19.860Z,76331.41
2022-10-16T04:28:47.195Z,76331.41
2022-10-16T04:31:14.154Z,76333.44
2022-10-16T04:33:44.367Z,76333.44
2022-10-16T04:36:11.830Z,76323.31
2022-10-16T04:38:40.501Z,76325.31
2022-10-16T04:41:09.079Z,76319.25
2022-10-16T04:43:36.625Z,76313.16
2022-10-16T04:46:05.720Z,76321.28
2022-10-16T04:48:33.602Z,76317.22
2022-10-16T04:51:00.941Z,76321.28
2022-10-16T04:53:28.223Z,76323.31
2022-10-16T04:55:55.581Z,76325.31
2022-10-16T04:58:24.645Z,76325.31
2022-10-16T05:00:51.824Z,76325.31
2022-10-16T05:03:18.983Z,76333.44
2022-10-16T05:05:46.677Z,76325.31
2022-10-16T05:08:15.127Z,76329.38
2022-10-16T05:10:43.396Z,76337.50
2022-10-16T05:13:11.000Z,76343.56
2022-10-16T05:15:37.957Z,76345.59
2022-10-16T05:18:05.099Z,76351.69
2022-10-16T05:20:32.014Z,76353.72
2022-10-16T05:22:59.254Z,76349.66
2022-10-16T05:25:26.521Z,76351.69
2022-10-16T05:27:53.694Z,76349.66
2022-10-16T05:30:21.273Z,76341.53
2022-10-16T05:32:51.928Z,76349.66
2022-10-16T05:35:19.941Z,76349.66
2022-10-16T05:37:47.891Z,76353.72
2022-10-16T05:40:15.481Z,76353.72
2022-10-16T05:42:42.526Z,76349.66
2022-10-16T05:45:11.812Z,76361.81
2022-10-16T05:47:39.110Z,76361.81
2022-10-16T05:50:06.953Z,76361.81
2022-10-16T05:52:34.196Z,76369.91
2022-10-16T05:55:01.141Z,76373.97
2022-10-16T05:57:28.974Z,76373.97
2022-10-16T05:59:56.058Z,76382.09
2022-10-16T06:02:23.247Z,76382.09
2022-10-16T06:04:50.125Z,76392.22
2022-10-16T06:07:17.289Z,76398.28
2022-10-16T06:09:44.477Z,76390.19
2022-10-16T06:12:11.589Z,76382.09
2022-10-16T06:14:38.694Z,76382.09
2022-10-16T06:17:05.804Z,76378.03
2022-10-16T06:19:32.757Z,76378.03
2022-10-16T06:22:00.289Z,76365.88
2022-10-16T06:24:27.492Z,76369.91
2022-10-16T06:26:54.545Z,76363.84
2022-10-16T06:29:21.492Z,76365.88
2022-10-16T06:31:48.925Z,76363.84
2022-10-16T06:34:15.877Z,76357.75
2022-10-16T06:36:44.540Z,76349.66
2022-10-16T06:39:11.496Z,76341.53
2022-10-16T06:41:39.241Z,76341.53
2022-10-16T06:44:16.240Z,76345.59
2022-10-16T06:46:43.594Z,76341.53
2022-10-16T06:49:10.676Z,76333.44
2022-10-16T06:51:43.223Z,76325.31
2022-10-16T06:54:10.935Z,76317.22
2022-10-16T06:56:38.695Z,76309.13
2022-10-16T06:59:05.801Z,76294.91
2022-10-16T07:01:50.900Z,76282.75
2022-10-16T07:04:18.122Z,76272.63
2022-10-16T07:06:45.272Z,76254.38
2022-10-16T07:09:12.976Z,76240.19
2022-10-16T07:11:41.663Z,76223.97
2022-10-16T07:14:18.582Z,76219.94
2022-10-16T07:16:46.571Z,76221.94
2022-10-16T07:19:16.034Z,76226.00
2022-10-16T07:21:43.334Z,76221.94
2022-10-16T07:24:16.376Z,76221.94
2022-10-16T07:26:45.934Z,76226.00
2022-10-16T07:29:19.398Z,76221.94
2022-10-16T07:31:46.940Z,76207.78
2022-10-16T07:34:16.141Z,76191.56
2022-10-16T07:36:43.544Z,76187.50
2022-10-16T07:39:11.019Z,76183.44
2022-10-16T07:41:38.196Z,76179.38
2022-10-16T07:44:06.356Z,76177.38
2022-10-16T07:46:35.084Z,76171.28
2022-10-16T07:49:02.292Z,76155.06
2022-10-16T07:51:29.856Z,76142.91
2022-10-16T07:53:57.124Z,76130.75
2022-10-16T07:56:24.574Z,76118.59
2022-10-16T07:58:52.828Z,76108.44
2022-10-16T08:01:20.403Z,76090.22
2022-10-16T08:03:52.502Z,76074.00
2022-10-16T08:06:25.194Z,76061.84
2022-10-16T08:08:56.872Z,76045.63
2022-10-16T08:11:24.529Z,76033.47
2022-10-16T08:13:52.577Z,76027.38
2022-10-16T08:16:20.248Z,76021.31
2022-10-16T08:18:47.542Z,76013.19
2022-10-16T08:21:21.370Z,76001.03
2022-10-16T08:23:54.492Z,75996.97
2022-10-16T08:26:26.109Z,76001.03
2022-10-16T08:28:53.559Z,76001.03
2022-10-16T08:31:21.112Z,75996.97
2022-10-16T08:33:49.049Z,75988.88
2022-10-16T08:36:17.306Z,75984.81
2022-10-16T08:38:44.603Z,75980.75
2022-10-16T08:41:14.482Z,75980.75
2022-10-16T08:44:07.820Z,75988.88
2022-10-16T08:46:40.610Z,75988.88
2022-10-16T08:49:14.080Z,75980.75
2022-10-16T08:51:44.215Z,75976.72
2022-10-16T08:54:37.984Z,75964.56
2022-10-16T08:57:18.469Z,75956.44
2022-10-16T08:59:47.290Z,75952.38
2022-10-16T09:02:31.004Z,75944.28
2022-10-16T09:05:20.150Z,75930.09
2022-10-16T09:08:25.524Z,75928.06
2022-10-16T09:10:55.560Z,75932.13
2022-10-16T09:13:31.046Z,75930.09
2022-10-16T09:16:50.837Z,75924.00
2022-10-16T09:19:43.014Z,75917.94
2022-10-16T09:22:17.660Z,75907.81
2022-10-16T09:24:44.960Z,75903.75
2022-10-16T09:27:15.950Z,75895.66
2022-10-16T09:29:43.003Z,75879.44
2022-10-16T09:32:16.370Z,75855.09
2022-10-16T09:34:57.370Z,75838.91
2022-10-16T09:37:27.270Z,75814.56
2022-10-16T09:39:55.825Z,75802.41
2022-10-16T09:42:29.402Z,75782.16
2022-10-16T09:44:58.547Z,75786.19
2022-10-16T09:47:29.026Z,75782.16
2022-10-16T09:50:03.226Z,75774.03
2022-10-16T09:52:31.320Z,75765.94
2022-10-16T09:55:13.480Z,75765.94
2022-10-16T09:57:54.108Z,75776.06
2022-10-16T10:00:23.112Z,75770.00
2022-10-16T10:02:51.068Z,75765.94
2022-10-16T10:05:22.916Z,75743.66
2022-10-16T10:08:00.237Z,75725.41
2022-10-16T10:10:33.030Z,75713.25
2022-10-16T10:13:00.881Z,75711.22
2022-10-16T10:15:35.115Z,75705.13
2022-10-16T10:18:04.341Z,75705.13
2022-10-16T10:20:36.506Z,75692.97
2022-10-16T10:23:22.982Z,75672.72
2022-10-16T10:26:06.953Z,75664.59
2022-10-16T10:28:49.430Z,75654.47
2022-10-16T10:31:32.988Z,75644.34
2022-10-16T10:34:18.573Z,75640.28
2022-10-16T10:36:53.903Z,75636.22
2022-10-16T10:39:27.721Z,75626.09
2022-10-16T10:42:03.486Z,75620.03
2022-10-16T10:44:57.272Z,75618.00
2022-10-16T10:48:01.364Z,75611.91
2022-10-16T10:50:50.613Z,75624.06
2022-10-16T10:53:39.418Z,75603.81
2022-10-16T10:56:32.034Z,75611.91
2022-10-16T10:59:01.854Z,75607.88
2022-10-16T11:01:54.115Z,75599.75
2022-10-16T11:04:21.030Z,75595.69
2022-10-16T11:06:53.537Z,75583.53
2022-10-16T11:09:37.698Z,75579.50
2022-10-16T11:12:08.172Z,75575.44
2022-10-16T11:14:35.187Z,75575.44
2022-10-16T11:17:20.371Z,75583.53
2022-10-16T11:20:20.665Z,75593.69
2022-10-16T11:22:57.565Z,75595.69
2022-10-16T11:25:33.440Z,75601.78
2022-10-16T11:28:12.750Z,75603.81
2022-10-16T11:30:42.616Z,75599.75
2022-10-16T11:33:19.499Z,75603.81
2022-10-16T11:36:15.407Z,75607.88
2022-10-16T11:39:07.281Z,75601.78
2022-10-16T11:41:37.194Z,75595.69
2022-10-16T11:44:39.698Z,75591.66
2022-10-16T11:47:59.216Z,75583.53
2022-10-16T11:50:35.620Z,75561.25
2022-10-16T11:53:36.508Z,75551.13
2022-10-16T11:56:05.568Z,75551.13
2022-10-16T11:58:46.014Z,75547.06
2022-10-16T12:01:21.184Z,75545.03
2022-10-16T12:04:28.624Z,75551.13
2022-10-16T12:07:07.316Z,75555.19
2022-10-16T12:09:39.494Z,75561.25
2022-10-16T12:12:29.168Z,75555.19
2022-10-16T12:15:26.037Z,75551.13
2022-10-16T12:18:02.208Z,75547.06
2022-10-16T12:20:36.172Z,75555.19
2022-10-16T12:23:06.415Z,75561.25
2022-10-16T12:25:40.946Z,75575.44
2022-10-16T12:28:21.437Z,75575.44
2022-10-16T12:31:10.976Z,75589.63
2022-10-16T12:33:42.829Z,75595.69
2022-10-16T12:36:38.014Z,75595.69
2022-10-16T12:39:05.558Z,75591.66
2022-10-16T12:41:40.828Z,75591.66
2022-10-16T12:44:27.382Z,75597.72
2022-10-16T12:46:54.362Z,75603.81
2022-10-16T12:49:38.004Z,75609.88
2022-10-16T12:52:05.747Z,75615.97
2022-10-16T12:54:38.612Z,75620.03
2022-10-16T12:57:28.617Z,75615.97
2022-10-16T13:00:21.175Z,75611.91
2022-10-16T13:02:58.287Z,75624.06
2022-10-16T13:05:40.793Z,75620.03
2022-10-16T13:08:10.630Z,75620.03
2022-10-16T13:11:19.122Z,75628.13
2022-10-16T13:13:59.727Z,75632.19
2022-10-16T13:17:24.036Z,75642.31
2022-10-16T13:20:13.693Z,75652.44
2022-10-16T13:22:53.864Z,75664.59
2022-10-16T13:25:31.061Z,75672.72
2022-10-16T13:28:02.402Z,75680.81
2022-10-16T13:30:31.936Z,75688.94
2022-10-16T13:33:05.264Z,75695.00
2022-10-16T13:35:34.596Z,75707.16
2022-10-16T13:38:17.088Z,75713.25
2022-10-16T13:40:55.958Z,75709.19
2022-10-16T13:43:28.837Z,75717.28
2022-10-16T13:46:08.141Z,75717.28
2022-10-16T13:48:35.747Z,75721.34
2022-10-16T13:51:19.639Z,75721.34
2022-10-16T13:53:47.547Z,75721.34
2022-10-16T13:56:20.748Z,75721.34
2022-10-16T13:58:58.673Z,75725.41
2022-10-16T14:01:35.473Z,75715.28
2022-10-16T14:04:08.888Z,75709.19
2022-10-16T14:06:40.913Z,75701.09
2022-10-16T14:09:15.219Z,75705.13
2022-10-16T14:12:11.425Z,75705.13
2022-10-16T14:14:43.053Z,75703.13
2022-10-16T14:17:19.656Z,75707.16
2022-10-16T14:19:56.946Z,75709.19
2022-10-16T14:22:41.478Z,75713.25
2022-10-16T14:25:21.181Z,75717.28
2022-10-16T14:28:05.952Z,75721.34
2022-10-16T14:30:36.086Z,75721.34
2022-10-16T14:33:05.729Z,75737.56
2022-10-16T14:35:39.549Z,75741.63
2022-10-16T14:38:18.316Z,75745.66
2022-10-16T14:40:49.773Z,75741.63
2022-10-16T14:43:23.348Z,75745.66
2022-10-16T14:45:57.016Z,75743.66
2022-10-16T14:48:25.321Z,75741.63
2022-10-16T14:50:52.633Z,75737.56
2022-10-16T14:53:19.805Z,75737.56
2022-10-16T14:55:47.214Z,75745.66
2022-10-16T14:58:22.816Z,75753.78
2022-10-16T15:00:50.526Z,75763.91
2022-10-16T15:03:17.750Z,75761.88
2022-10-16T15:05:45.247Z,75765.94
2022-10-16T15:08:13.379Z,75774.03
2022-10-16T15:10:45.089Z,75765.94
2022-10-16T15:13:15.521Z,75782.16
2022-10-16T15:15:47.355Z,75780.13
2022-10-16T15:18:16.211Z,75802.41
2022-10-16T15:20:44.424Z,75804.44
2022-10-16T15:23:16.828Z,75816.59
2022-10-16T15:25:45.366Z,75818.63
2022-10-16T15:28:14.280Z,75822.69
2022-10-16T15:30:42.831Z,75828.75
2022-10-16T15:33:19.350Z,75834.84
2022-10-16T15:35:50.815Z,75842.94
2022-10-16T15:38:19.426Z,75838.91
2022-10-16T15:40:47.388Z,75842.94
2022-10-16T15:43:14.421Z,75851.06
2022-10-16T15:45:42.127Z,75851.06
2022-10-16T15:48:14.674Z,75857.13
2022-10-16T15:50:41.945Z,75857.13
2022-10-16T15:53:09.191Z,75859.16
2022-10-16T15:55:38.885Z,75871.31
2022-10-16T15:58:06.600Z,75873.34
2022-10-16T16:00:34.265Z,75867.28
2022-10-16T16:03:01.414Z,75873.34
2022-10-16T16:05:28.730Z,75875.38
2022-10-16T16:07:55.710Z,75883.47
2022-10-16T16:10:22.908Z,75895.66
2022-10-16T16:12:53.092Z,75903.75
2022-10-16T16:15:22.345Z,75899.69
2022-10-16T16:17:50.328Z,75903.75
2022-10-16T16:20:17.850Z,75903.75
2022-10-16T16:22:44.932Z,75907.81
2022-10-16T16:25:12.381Z,75907.81
2022-10-16T16:27:39.654Z,75911.84
2022-10-16T16:30:08.366Z,75915.91
2022-10-16T16:32:36.219Z,75928.06
2022-10-16T16:35:04.924Z,75928.06
2022-10-16T16:37:32.419Z,75932.13
2022-10-16T16:39:59.712Z,75940.22
2022-10-16T16:42:28.274Z,75946.31
2022-10-16T16:44:55.693Z,75964.56
2022-10-16T16:47:23.023Z,75966.56
2022-10-16T16:49:50.474Z,75972.66
2022-10-16T16:52:17.720Z,75984.81
2022-10-16T16:54:52.217Z,75988.88
2022-10-16T16:57:21.116Z,76001.03
2022-10-16T16:59:52.028Z,76005.09
2022-10-16T17:02:19.089Z,76009.13
2022-10-16T17:04:46.408Z,76017.25
2022-10-16T17:07:13.352Z,76025.34
2022-10-16T17:09:40.745Z,76031.44
2022-10-16T17:12:07.916Z,76033.47
2022-10-16T17:14:35.005Z,76041.56
2022-10-16T17:17:02.019Z,76045.63
2022-10-16T17:19:29.152Z,76051.69
2022-10-16T17:21:56.159Z,76057.78
2022-10-16T17:24:23.490Z,76061.84
2022-10-16T17:26:50.579Z,76065.88
2022-10-16T17:29:18.875Z,76078.06
2022-10-16T17:31:46.500Z,76074.00
2022-10-16T17:34:14.193Z,76074.00
2022-10-16T17:36:44.448Z,76082.09
2022-10-16T17:39:14.172Z,76090.22
2022-10-16T17:41:41.135Z,76094.25
2022-10-16T17:44:08.655Z,76100.34
2022-10-16T17:46:40.101Z,76110.47
2022-10-16T17:49:09.909Z,76118.59
2022-10-16T17:51:37.130Z,76116.56
2022-10-16T17:54:04.704Z,76116.56
2022-10-16T17:56:32.156Z,76124.66
2022-10-16T17:59:01.726Z,76126.69
2022-10-16T18:01:35.405Z,76130.75
2022-10-16T18:04:07.371Z,76134.78
2022-10-16T18:06:34.877Z,76138.84
2022-10-16T18:09:04.306Z,76142.91
2022-10-16T18:11:32.260Z,76146.97
2022-10-16T18:13:59.817Z,76155.06
2022-10-16T18:16:29.221Z,76159.13
2022-10-16T18:18:57.365Z,76171.28
2022-10-16T18:21:27.500Z,76171.28
2022-10-16T18:23:55.470Z,76175.34
2022-10-16T18:26:23.482Z,76175.34
2022-10-16T18:28:55.966Z,76175.34
2022-10-16T18:31:23.994Z,76175.34
2022-10-16T18:33:51.605Z,76179.38
2022-10-16T18:36:21.847Z,76187.50
2022-10-16T18:38:50.507Z,76181.41
2022-10-16T18:41:17.973Z,76187.50
2022-10-16T18:43:45.235Z,76191.56
2022-10-16T18:46:15.632Z,76203.72
2022-10-16T18:48:44.203Z,76203.72
2022-10-16T18:51:16.981Z,76211.81
2022-10-16T18:53:46.016Z,76215.88
2022-10-16T18:56:16.895Z,76223.97
2022-10-16T18:58:48.356Z,76228.03
2022-10-16T19:01:20.990Z,76236.16
2022-10-16T19:03:53.508Z,76252.34
2022-10-16T19:06:20.711Z,76252.34
2022-10-16T19:08:48.150Z,76256.41
2022-10-16T19:11:17.825Z,76270.59
2022-10-16T19:13:46.551Z,76280.72
2022-10-16T19:16:22.974Z,76288.84
2022-10-16T19:18:52.054Z,76305.06
2022-10-16T19:21:19.227Z,76311.13
2022-10-16T19:23:47.156Z,76321.28
2022-10-16T19:26:17.016Z,76323.31
2022-10-16T19:28:44.936Z,76329.38
2022-10-16T19:31:18.569Z,76345.59
2022-10-16T19:33:46.318Z,76349.66
2022-10-16T19:36:19.079Z,76353.72
2022-10-16T19:38:47.131Z,76365.88
2022-10-16T19:41:18.516Z,76369.91
2022-10-16T19:43:45.879Z,76373.97
2022-10-16T19:46:19.363Z,76378.03
2022-10-16T19:48:48.456Z,76386.13
2022-10-16T19:51:18.397Z,76382.09
2022-10-16T19:53:47.189Z,76386.13
2022-10-16T19:56:17.177Z,76394.25
2022-10-16T19:58:45.843Z,76404.38
2022-10-16T20:01:14.625Z,76406.41
2022-10-16T20:03:46.447Z,76414.50
2022-10-16T20:06:13.540Z,76414.50
2022-10-16T20:08:42.510Z,76418.56
2022-10-16T20:11:15.103Z,76420.59
2022-10-16T20:13:42.605Z,76430.72
2022-10-16T20:16:10.775Z,76430.72
2022-10-16T20:18:38.442Z,76442.91
2022-10-16T20:21:10.634Z,76448.97
2022-10-16T20:23:37.977Z,76451.00
2022-10-16T20:26:05.145Z,76451.00
2022-10-16T20:28:32.442Z,76448.97
2022-10-16T20:30:59.477Z,76459.09
2022-10-16T20:33:26.631Z,76459.09
2022-10-16T20:35:53.677Z,76467.22
2022-10-16T20:38:20.736Z,76475.31
2022-10-16T20:40:48.647Z,76475.31
2022-10-16T20:43:17.975Z,76483.44
2022-10-16T20:45:45.966Z,76479.38
2022-10-16T20:48:14.035Z,76487.50
2022-10-16T20:50:42.109Z,76491.53
2022-10-16T20:53:09.499Z,76487.50
2022-10-16T20:55:37.953Z,76489.50
2022-10-16T20:58:05.830Z,76495.59
2022-10-16T21:00:33.017Z,76495.59
2022-10-16T21:03:00.202Z,76495.59
2022-10-16T21:05:29.964Z,76503.69
2022-10-16T21:08:00.728Z,76503.69
2022-10-16T21:10:29.561Z,76505.72
2022-10-16T21:12:56.676Z,76511.81
2022-10-16T21:15:23.856Z,76519.91
2022-10-16T21:17:51.028Z,76528.03
2022-10-16T21:20:18.233Z,76528.03
2022-10-16T21:22:45.391Z,76532.09
2022-10-16T21:25:12.312Z,76540.19
2022-10-16T21:27:40.669Z,76542.22
2022-10-16T21:30:09.499Z,76540.19
2022-10-16T21:32:38.043Z,76552.34
2022-10-16T21:35:06.306Z,76558.44
2022-10-16T21:37:33.865Z,76560.47
2022-10-16T21:40:01.106Z,76564.50
2022-10-16T21:42:28.760Z,76568.56
2022-10-16T21:44:55.810Z,76576.69
2022-10-16T21:47:23.183Z,76582.75
2022-10-16T21:49:50.146Z,76580.72
2022-10-16T21:52:17.363Z,76584.78
2022-10-16T21:54:44.313Z,76594.91
2022-10-16T21:57:11.444Z,76588.84
2022-10-16T21:59:38.540Z,76594.91
2022-10-16T22:02:06.381Z,76601.00
2022-10-16T22:04:33.714Z,76605.06
2022-10-16T22:07:00.827Z,76613.16
2022-10-16T22:09:27.851Z,76609.09
2022-10-16T22:11:55.049Z,76605.06
2022-10-16T22:14:22.173Z,76605.06
2022-10-16T22:16:50.252Z,76609.09
2022-10-16T22:19:19.686Z,76621.28
2022-10-16T22:21:48.075Z,76621.28
2022-10-16T22:24:16.530Z,76621.28
2022-10-16T22:26:45.007Z,76621.28
2022-10-16T22:29:14.427Z,76621.28
2022-10-16T22:31:42.580Z,76625.31
2022-10-16T22:34:13.338Z,76629.38
2022-10-16T22:36:40.935Z,76637.50
2022-10-16T22:39:07.822Z,76649.66
2022-10-16T22:41:34.976Z,76645.59
2022-10-16T22:44:01.942Z,76653.72
2022-10-16T22:46:30.840Z,76659.78
2022-10-16T22:48:58.709Z,76665.88
2022-10-16T22:51:27.155Z,76669.94
2022-10-16T22:53:54.387Z,76669.94
2022-10-16T22:56:22.346Z,76673.97
2022-10-16T22:58:50.212Z,76678.03
2022-10-16T23:01:20.249Z,76684.13
2022-10-16T23:03:47.310Z,76678.03
2022-10-16T23:06:14.593Z,76690.19
2022-10-16T23:08:41.618Z,76684.13
2022-10-16T23:11:12.303Z,76682.09
2022-10-16T23:13:45.218Z,76694.25
2022-10-16T23:16:15.484Z,76694.25
2022-10-16T23:18:43.775Z,76700.34
2022-10-16T23:21:13.694Z,76702.34
2022-10-16T23:23:41.725Z,76710.47
2022-10-16T23:26:14.786Z,76714.53
2022-10-16T23:28:42.438Z,76714.53
2022-10-16T23:31:11.203Z,76726.69
2022-10-16T23:33:39.511Z,76730.75
2022-10-16T23:36:09.630Z,76730.75
2022-10-16T23:38:36.745Z,76734.78
2022-10-16T23:41:04.784Z,76740.88
2022-10-16T23:43:31.956Z,76742.91
2022-10-16T23:45:59.231Z,76753.03
2022-10-16T23:48:26.508Z,76763.16
2022-10-16T23:50:53.668Z,76775.34
2022-10-16T23:53:20.887Z,76777.38
2022-10-16T23:55:48.145Z,76783.44
2022-10-16T23:58:15.821Z,76795.59
